createdAt,value
2024-02-17T00:17:54.088Z,97.2
2024-02-17T00:37:53.923Z,97.5
2024-02-17T00:57:54.247Z,97.6
2024-02-17T01:17:54.030Z,98.2
2024-02-17T01:37:54.184Z,98.4
2024-02-17T01:57:54.195Z,98.8
2024-02-17T02:17:54.114Z,99.2
2024-02-17T02:37:54.162Z,99.5
2024-02-17T02:57:54.171Z,99.7
2024-02-17T03:17:53.902Z,99.9
2024-02-17T03:37:54.060Z,100.0
2024-02-17T03:57:53.933Z,100.0
2024-02-17T04:17:54.025Z,100.0
2024-02-17T04:37:53.844Z,100.0
2024-02-17T04:57:53.819Z,100.0
2024-02-17T05:17:53.883Z,100.0
2024-02-17T05:37:53.988Z,100.0
2024-02-17T05:57:54.018Z,100.0
2024-02-17T06:17:53.935Z,100.0
2024-02-17T06:37:53.904Z,100.0
2024-02-17T06:57:53.882Z,100.0
2024-02-17T07:17:53.760Z,100.0
2024-02-17T07:37:53.818Z,100.0
2024-02-17T07:57:53.882Z,100.0
2024-02-17T08:17:53.636Z,100.0
2024-02-17T08:37:53.513Z,100.0
2024-02-17T08:57:53.496Z,100.0
2024-02-17T09:17:53.557Z,100.0
2024-02-17T09:37:53.465Z,100.0
2024-02-17T09:57:53.504Z,100.0
2024-02-17T10:17:53.423Z,100.0
2024-02-17T10:37:53.708Z,100.0
2024-02-17T10:57:53.646Z,100.0
2024-02-17T11:17:53.440Z,100.0
2024-02-17T11:37:53.381Z,100.0
2024-02-17T11:57:53.610Z,100.0
2024-02-17T12:17:53.301Z,100.0
2024-02-17T12:37:53.275Z,100.0
2024-02-17T12:57:53.509Z,100.0
2024-02-17T13:17:53.534Z,100.0
2024-02-17T13:37:53.275Z,100.0
2024-02-17T13:57:53.283Z,100.0
2024-02-17T14:17:53.423Z,100.0
2024-02-17T14:37:53.345Z,99.0
2024-02-17T14:57:53.162Z,93.8
2024-02-17T15:17:53.178Z,94.3
2024-02-17T15:37:53.111Z,95.9
2024-02-17T15:57:53.082Z,96.6
2024-02-17T16:17:53.075Z,95.9
2024-02-17T16:37:53.053Z,95.8
2024-02-17T16:57:53.055Z,95.1
2024-02-17T17:17:53.041Z,95.0
2024-02-17T17:37:53.000Z,95.5
2024-02-17T17:57:52.986Z,94.6
2024-02-17T18:17:52.958Z,95.1
2024-02-17T18:37:52.957Z,96.2
2024-02-17T18:57:52.939Z,96.6
2024-02-17T19:17:52.923Z,96.0
2024-02-17T19:37:52.911Z,95.9
2024-02-17T19:57:52.893Z,96.3
2024-02-17T20:17:52.878Z,95.2
2024-02-17T20:37:52.869Z,95.3
2024-02-17T20:57:52.840Z,94.4
2024-02-17T21:17:52.828Z,96.4
2024-02-17T21:37:52.819Z,96.9
2024-02-17T21:57:52.796Z,97.4
2024-02-17T22:17:52.773Z,97.5
2024-02-17T22:37:52.756Z,97.2
2024-02-17T22:57:52.764Z,96.5
2024-02-17T23:17:52.742Z,96.6
2024-02-17T23:37:52.733Z,96.5
2024-02-17T23:57:52.722Z,96.4
